Time;durP1;ratioP1;P1;durP2;ratioP2;P2;SDS_P1;SDS_P2;PMS_P1;PMS_P2;Temp;Humidity;BMP_temperature;BMP_pressure;BME280_temperature;BME280_humidity;BME280_pressure;Samples;Min_cycle;Max_cycle;Signal;HPM_P1;HPM_P2
2022/10/19 00:02:17;;;;;;;4.87;3.13;;;;;;;;;;5099758;28;20212;-61
2022/10/19 00:04:45;;;;;;;4.67;3.10;;;;;;;;;;5099546;28;20282;-63
2022/10/19 00:07:13;;;;;;;5.53;3.70;;;;;;;;;;5099242;28;20194;-62
2022/10/19 00:09:43;;;;;;;5.40;4.80;;;;;;;;;;5098449;28;20208;-63
2022/10/19 00:12:11;;;;;;;6.93;4.20;;;;;;;;;;5099095;28;20202;-63
2022/10/19 00:14:41;;;;;;;9.00;3.80;;;;;;;;;;5099430;28;20228;-63
2022/10/19 00:17:09;;;;;;;6.27;3.30;;;;;;;;;;5099518;28;20204;-63
2022/10/19 00:19:36;;;;;;;4.33;3.07;;;;;;;;;;5099683;28;20208;-63
2022/10/19 00:22:04;;;;;;;4.07;3.43;;;;;;;;;;5099271;28;20206;-63
2022/10/19 00:24:37;;;;;;;5.33;3.37;;;;;;;;;;5098814;28;20580;-63
2022/10/19 00:27:05;;;;;;;5.50;3.73;;;;;;;;;;5098848;28;20212;-62
2022/10/19 00:29:33;;;;;;;7.43;3.60;;;;;;;;;;5099152;28;20202;-63
2022/10/19 00:32:02;;;;;;;7.47;4.13;;;;;;;;;;5098899;28;20213;-63
2022/10/19 00:34:30;;;;;;;8.43;3.83;;;;;;;;;;5098692;28;20226;-63
2022/10/19 00:36:58;;;;;;;4.90;3.40;;;;;;;;;;5098857;28;20202;-63
2022/10/19 00:39:26;;;;;;;6.13;3.37;;;;;;;;;;5099012;28;20208;-61
2022/10/19 00:41:53;;;;;;;7.43;3.50;;;;;;;;;;5098206;28;20213;-63
2022/10/19 00:44:40;;;;;;;5.93;3.30;;;;;;;;;;5098658;28;20237;-63
2022/10/19 00:47:09;;;;;;;4.90;3.33;;;;;;;;;;5098596;28;20737;-63
2022/10/19 00:49:40;;;;;;;3.83;3.10;;;;;;;;;;5098521;28;20205;-62
2022/10/19 00:52:09;;;;;;;4.77;3.47;;;;;;;;;;5098890;28;20216;-62
2022/10/19 00:54:37;;;;;;;7.40;3.67;;;;;;;;;;5098480;28;20237;-63
2022/10/19 00:57:06;;;;;;;4.60;3.17;;;;;;;;;;5097926;28;20202;-61
2022/10/19 00:59:34;;;;;;;6.37;3.30;;;;;;;;;;5098706;28;20210;-63
2022/10/19 01:02:03;;;;;;;4.60;3.50;;;;;;;;;;5098481;28;20201;-62
2022/10/19 01:04:34;;;;;;;8.80;3.87;;;;;;;;;;5098500;28;20241;-62
2022/10/19 01:07:03;;;;;;;5.43;3.40;;;;;;;;;;5098126;28;20583;-62
2022/10/19 01:09:31;;;;;;;4.70;3.37;;;;;;;;;;5098169;28;20581;-63
2022/10/19 01:12:04;;;;;;;5.07;3.50;;;;;;;;;;5098012;28;20210;-62
2022/10/19 01:14:36;;;;;;;4.70;3.70;;;;;;;;;;5098231;28;20723;-62
2022/10/19 01:17:09;;;;;;;7.73;4.00;;;;;;;;;;5098052;28;20610;-62
2022/10/19 01:20:00;;;;;;;10.20;4.50;;;;;;;;;;5098602;28;20212;-63
2022/10/19 01:22:35;;;;;;;6.83;4.27;;;;;;;;;;5098267;28;20216;-62
2022/10/19 01:25:10;;;;;;;8.10;4.30;;;;;;;;;;5098065;28;20235;-63
2022/10/19 01:27:50;;;;;;;8.90;4.20;;;;;;;;;;5097850;28;20212;-64
2022/10/19 01:30:25;;;;;;;7.13;4.03;;;;;;;;;;5098214;28;20205;-63
2022/10/19 01:32:59;;;;;;;6.97;4.17;;;;;;;;;;5097841;28;20201;-63
2022/10/19 01:35:29;;;;;;;8.97;4.40;;;;;;;;;;5097956;28;20565;-62
2022/10/19 01:38:04;;;;;;;8.60;4.60;;;;;;;;;;5097807;28;20240;-63
2022/10/19 01:40:38;;;;;;;8.53;4.67;;;;;;;;;;5097880;28;20220;-63
2022/10/19 01:43:10;;;;;;;7.30;5.10;;;;;;;;;;5097375;28;20232;-63
2022/10/19 01:45:41;;;;;;;5.53;4.13;;;;;;;;;;5097694;28;20687;-63
2022/10/19 01:48:12;;;;;;;7.63;4.73;;;;;;;;;;5097822;28;20645;-64
2022/10/19 01:50:43;;;;;;;6.97;4.60;;;;;;;;;;5097651;28;20205;-63
2022/10/19 01:53:12;;;;;;;11.10;5.23;;;;;;;;;;5097778;28;20233;-63
2022/10/19 01:55:42;;;;;;;7.17;5.30;;;;;;;;;;5097893;28;20205;-63
2022/10/19 01:58:10;;;;;;;7.63;4.47;;;;;;;;;;5097369;28;20217;-63
2022/10/19 02:00:42;;;;;;;9.33;6.37;;;;;;;;;;5097568;28;20657;-63
2022/10/19 02:03:11;;;;;;;8.33;5.83;;;;;;;;;;5097853;28;20210;-63
2022/10/19 02:05:40;;;;;;;8.60;6.03;;;;;;;;;;5097604;28;20225;-63
2022/10/19 02:08:11;;;;;;;9.13;6.03;;;;;;;;;;5097617;28;20570;-63
2022/10/19 02:10:42;;;;;;;9.60;5.57;;;;;;;;;;5097585;28;20544;-64
2022/10/19 02:13:11;;;;;;;8.17;5.30;;;;;;;;;;5097442;28;20213;-63
2022/10/19 02:15:43;;;;;;;7.13;5.20;;;;;;;;;;5097768;28;20205;-64
2022/10/19 02:18:12;;;;;;;8.67;5.30;;;;;;;;;;5097455;28;20202;-63
2022/10/19 02:20:40;;;;;;;8.33;5.13;;;;;;;;;;5097693;28;20206;-63
2022/10/19 02:23:08;;;;;;;7.27;5.13;;;;;;;;;;5097445;28;20209;-64
2022/10/19 02:25:36;;;;;;;8.17;5.80;;;;;;;;;;5097491;28;20226;-62
2022/10/19 02:28:05;;;;;;;11.53;5.07;;;;;;;;;;5097525;28;20222;-63
2022/10/19 02:30:33;;;;;;;9.10;5.00;;;;;;;;;;5097658;28;20230;-63
2022/10/19 02:33:02;;;;;;;9.07;5.10;;;;;;;;;;5099357;28;20209;-63
2022/10/19 02:35:30;;;;;;;9.97;5.13;;;;;;;;;;5101447;28;20202;-64
2022/10/19 02:38:00;;;;;;;6.07;4.97;;;;;;;;;;5101322;28;20229;-63
2022/10/19 02:40:29;;;;;;;4.93;4.27;;;;;;;;;;5100961;28;20209;-63
2022/10/19 02:43:00;;;;;;;6.23;3.30;;;;;;;;;;5101257;28;20210;-63
2022/10/19 02:45:29;;;;;;;7.30;3.73;;;;;;;;;;5101033;28;20221;-64
2022/10/19 02:47:59;;;;;;;5.40;3.53;;;;;;;;;;5100781;28;20205;-62
2022/10/19 02:50:29;;;;;;;6.43;3.47;;;;;;;;;;5101179;28;20220;-61
2022/10/19 02:52:58;;;;;;;3.87;3.40;;;;;;;;;;5100806;28;20216;-64
2022/10/19 02:55:26;;;;;;;5.57;3.20;;;;;;;;;;5100952;28;20202;-62
2022/10/19 02:57:54;;;;;;;3.67;3.23;;;;;;;;;;5100605;28;20585;-62
2022/10/19 03:00:22;;;;;;;5.20;3.60;;;;;;;;;;5100904;28;20212;-63
2022/10/19 03:02:50;;;;;;;4.43;3.40;;;;;;;;;;5099439;28;20232;-63
2022/10/19 03:05:18;;;;;;;9.93;3.60;;;;;;;;;;5100645;28;20229;-63
2022/10/19 03:07:47;;;;;;;11.50;3.93;;;;;;;;;;5100912;28;20205;-62
2022/10/19 03:10:15;;;;;;;9.97;3.80;;;;;;;;;;5100439;28;20209;-63
2022/10/19 03:12:43;;;;;;;7.33;3.83;;;;;;;;;;5100368;28;20209;-63
2022/10/19 03:15:14;;;;;;;6.10;3.87;;;;;;;;;;5100128;28;20225;-62
2022/10/19 03:17:42;;;;;;;5.17;3.47;;;;;;;;;;5097307;28;20213;-62
2022/10/19 03:20:10;;;;;;;12.23;3.73;;;;;;;;;;5100508;28;20212;-62
2022/10/19 03:22:38;;;;;;;5.33;3.50;;;;;;;;;;5100267;28;20209;-62
2022/10/19 03:25:08;;;;;;;7.07;3.47;;;;;;;;;;5097333;28;20332;-63
2022/10/19 03:27:37;;;;;;;9.13;4.00;;;;;;;;;;5098662;28;20193;-63
2022/10/19 03:30:05;;;;;;;4.93;3.20;;;;;;;;;;5094327;28;20202;-63
2022/10/19 03:32:33;;;;;;;7.73;3.40;;;;;;;;;;5099123;28;20201;-63
2022/10/19 03:35:01;;;;;;;5.17;3.47;;;;;;;;;;5096017;28;20217;-63
2022/10/19 03:37:29;;;;;;;5.77;3.30;;;;;;;;;;5096099;28;20232;-63
2022/10/19 03:39:57;;;;;;;9.10;3.73;;;;;;;;;;5095629;28;20602;-63
2022/10/19 03:42:29;;;;;;;5.33;4.00;;;;;;;;;;5098719;28;20206;-63
2022/10/19 03:44:58;;;;;;;8.60;3.50;;;;;;;;;;5095414;28;20233;-63
2022/10/19 03:47:27;;;;;;;6.03;3.67;;;;;;;;;;5095972;28;20198;-63
2022/10/19 03:49:57;;;;;;;3.87;3.47;;;;;;;;;;5094868;28;20689;-63
2022/10/19 03:52:28;;;;;;;5.70;3.70;;;;;;;;;;5096745;28;20198;-63
2022/10/19 03:54:56;;;;;;;7.07;3.70;;;;;;;;;;5095387;28;20576;-63
2022/10/19 03:57:25;;;;;;;8.20;4.17;;;;;;;;;;5092697;28;20576;-62
2022/10/19 03:59:54;;;;;;;9.53;4.33;;;;;;;;;;5095554;28;20657;-62
2022/10/19 04:02:22;;;;;;;3.70;3.23;;;;;;;;;;5093016;28;20197;-63
2022/10/19 04:04:50;;;;;;;6.47;3.70;;;;;;;;;;5096728;28;20221;-63
2022/10/19 04:07:18;;;;;;;5.40;3.77;;;;;;;;;;5098421;28;20207;-63
2022/10/19 04:09:46;;;;;;;7.93;3.90;;;;;;;;;;5093232;28;20212;-64
2022/10/19 04:12:14;;;;;;;6.40;3.70;;;;;;;;;;5095154;28;20212;-63
2022/10/19 04:14:42;;;;;;;6.33;3.63;;;;;;;;;;5095469;28;20217;-64
2022/10/19 04:17:26;;;;;;;5.47;4.17;;;;;;;;;;5097886;28;20580;-63
2022/10/19 04:19:54;;;;;;;10.43;4.30;;;;;;;;;;5093551;28;20201;-62
2022/10/19 04:22:25;;;;;;;5.70;4.13;;;;;;;;;;5097774;28;20197;-62
2022/10/19 04:24:53;;;;;;;6.07;3.83;;;;;;;;;;5096093;28;20228;-63
2022/10/19 04:27:21;;;;;;;6.70;4.17;;;;;;;;;;5096844;28;20213;-62
2022/10/19 04:29:52;;;;;;;7.17;4.17;;;;;;;;;;5094972;28;20661;-62
2022/10/19 04:32:22;;;;;;;8.73;3.87;;;;;;;;;;5098721;28;20220;-61
2022/10/19 04:34:51;;;;;;;7.63;3.93;;;;;;;;;;5098705;28;20236;-61
2022/10/19 04:37:19;;;;;;;7.20;3.80;;;;;;;;;;5098794;28;20197;-62
2022/10/19 04:39:47;;;;;;;6.77;4.73;;;;;;;;;;5098772;28;20200;-62
2022/10/19 04:42:15;;;;;;;9.03;3.90;;;;;;;;;;5098477;28;20205;-62
2022/10/19 04:44:43;;;;;;;7.57;4.30;;;;;;;;;;5098570;28;20271;-62
2022/10/19 04:47:11;;;;;;;7.03;4.33;;;;;;;;;;5098856;28;20229;-63
2022/10/19 04:49:39;;;;;;;7.57;4.83;;;;;;;;;;5098590;28;20205;-63
2022/10/19 04:52:08;;;;;;;6.60;4.70;;;;;;;;;;5099063;28;20205;-62
2022/10/19 04:54:36;;;;;;;5.77;4.10;;;;;;;;;;5098028;28;20719;-63
2022/10/19 04:57:04;;;;;;;6.40;4.07;;;;;;;;;;5097776;28;20291;-63
2022/10/19 04:59:32;;;;;;;5.43;4.30;;;;;;;;;;5098793;28;20210;-63
2022/10/19 05:02:00;;;;;;;8.87;4.27;;;;;;;;;;5098319;28;20576;-62
2022/10/19 05:04:28;;;;;;;9.57;4.20;;;;;;;;;;5098427;28;20229;-63
2022/10/19 05:06:55;;;;;;;9.30;4.60;;;;;;;;;;5097921;28;20628;-61
2022/10/19 05:09:25;;;;;;;5.80;4.10;;;;;;;;;;5098439;28;20212;-61
2022/10/19 05:11:53;;;;;;;7.43;4.40;;;;;;;;;;5097772;28;20297;-61
2022/10/19 05:14:21;;;;;;;11.20;4.43;;;;;;;;;;5098457;28;20235;-60
2022/10/19 05:16:49;;;;;;;6.20;4.40;;;;;;;;;;5098235;28;20231;-61
2022/10/19 05:19:17;;;;;;;8.03;4.20;;;;;;;;;;5098063;28;20260;-61
2022/10/19 05:21:45;;;;;;;7.37;4.43;;;;;;;;;;5098196;28;20225;-60
2022/10/19 05:24:13;;;;;;;7.80;4.73;;;;;;;;;;5097851;28;20236;-61
2022/10/19 05:26:42;;;;;;;7.07;4.73;;;;;;;;;;5097409;28;20252;-61
2022/10/19 05:29:11;;;;;;;12.80;4.50;;;;;;;;;;5097911;28;20575;-61
2022/10/19 05:31:39;;;;;;;9.53;4.47;;;;;;;;;;5098036;28;20206;-61
2022/10/19 05:34:07;;;;;;;9.53;5.20;;;;;;;;;;5097919;28;20589;-61
2022/10/19 05:36:36;;;;;;;10.50;4.50;;;;;;;;;;5097927;28;20208;-60
2022/10/19 05:39:05;;;;;;;5.50;3.77;;;;;;;;;;5098097;28;20208;-60
2022/10/19 05:41:33;;;;;;;6.63;4.00;;;;;;;;;;5097493;28;20217;-60
2022/10/19 05:44:03;;;;;;;18.40;5.53;;;;;;;;;;5097822;28;20225;-60
2022/10/19 05:46:31;;;;;;;6.50;4.17;;;;;;;;;;5097730;28;20229;-60
2022/10/19 05:49:00;;;;;;;8.17;4.73;;;;;;;;;;5096437;28;20197;-60
2022/10/19 05:51:28;;;;;;;8.17;4.53;;;;;;;;;;5097607;28;20641;-60
2022/10/19 05:53:56;;;;;;;8.20;4.60;;;;;;;;;;5097569;28;20245;-60
2022/10/19 05:56:26;;;;;;;6.83;4.37;;;;;;;;;;5097382;28;20205;-61
2022/10/19 05:58:55;;;;;;;5.07;4.10;;;;;;;;;;5097858;28;20574;-61
2022/10/19 06:01:25;;;;;;;7.67;4.40;;;;;;;;;;5097681;28;20212;-61
2022/10/19 06:03:53;;;;;;;12.10;5.03;;;;;;;;;;5097760;28;20235;-61
2022/10/19 06:06:21;;;;;;;6.37;4.50;;;;;;;;;;5098402;28;20225;-60
2022/10/19 06:08:49;;;;;;;10.97;4.70;;;;;;;;;;5101687;28;20685;-60
2022/10/19 06:11:18;;;;;;;8.17;4.90;;;;;;;;;;5101665;28;20205;-61
2022/10/19 06:13:48;;;;;;;12.83;4.83;;;;;;;;;;5101856;28;20236;-60
2022/10/19 06:16:17;;;;;;;9.13;5.20;;;;;;;;;;5101839;28;20213;-60
2022/10/19 06:18:46;;;;;;;8.17;4.93;;;;;;;;;;5101540;28;20212;-60
2022/10/19 06:21:15;;;;;;;9.57;4.73;;;;;;;;;;5101532;28;20723;-60
2022/10/19 06:23:43;;;;;;;8.60;4.50;;;;;;;;;;5098701;28;20235;-60
2022/10/19 06:26:12;;;;;;;6.03;4.50;;;;;;;;;;5101035;28;20215;-60
2022/10/19 06:28:41;;;;;;;10.40;4.87;;;;;;;;;;5101268;28;20247;-60
2022/10/19 06:31:09;;;;;;;10.33;4.60;;;;;;;;;;5101076;28;20201;-60
2022/10/19 06:33:39;;;;;;;6.60;4.77;;;;;;;;;;5100501;28;20221;-61
2022/10/19 06:36:10;;;;;;;12.23;4.80;;;;;;;;;;5094530;28;20226;-61
2022/10/19 06:38:38;;;;;;;9.83;5.13;;;;;;;;;;5091958;28;20202;-61
2022/10/19 06:41:06;;;;;;;11.23;5.33;;;;;;;;;;5096087;28;20224;-61
2022/10/19 06:43:34;;;;;;;11.90;4.70;;;;;;;;;;5100154;28;20255;-61
2022/10/19 06:46:03;;;;;;;13.83;4.87;;;;;;;;;;5100593;28;20213;-61
2022/10/19 06:48:31;;;;;;;9.77;4.83;;;;;;;;;;5094870;28;20582;-61
2022/10/19 06:51:00;;;;;;;10.90;4.00;;;;;;;;;;5097820;28;20217;-61
2022/10/19 06:53:30;;;;;;;10.47;6.57;;;;;;;;;;5098278;28;20233;-60
2022/10/19 06:55:58;;;;;;;11.60;5.17;;;;;;;;;;5098433;28;20229;-61
2022/10/19 06:58:26;;;;;;;6.93;5.10;;;;;;;;;;5100497;28;20198;-61
2022/10/19 07:00:55;;;;;;;15.00;4.67;;;;;;;;;;5100163;28;20198;-63
2022/10/19 07:03:24;;;;;;;8.77;4.90;;;;;;;;;;5100730;28;20275;-62
2022/10/19 07:05:54;;;;;;;8.20;4.80;;;;;;;;;;5100423;28;20233;-63
2022/10/19 07:08:22;;;;;;;10.57;4.70;;;;;;;;;;5099971;28;20237;-61
2022/10/19 07:10:53;;;;;;;11.93;4.67;;;;;;;;;;5100249;28;20209;-61
2022/10/19 07:13:22;;;;;;;12.20;5.13;;;;;;;;;;5100098;28;20230;-62
2022/10/19 07:15:59;;;;;;;9.40;4.67;;;;;;;;;;5100356;28;20252;-60
2022/10/19 07:18:27;;;;;;;11.37;4.73;;;;;;;;;;5099759;28;20198;-61
2022/10/19 07:20:56;;;;;;;8.37;4.80;;;;;;;;;;5100477;28;20297;-61
2022/10/19 07:23:31;;;;;;;10.67;4.77;;;;;;;;;;5100352;28;20221;-61
2022/10/19 07:26:06;;;;;;;10.10;5.13;;;;;;;;;;5100020;28;20308;-61
2022/10/19 07:28:42;;;;;;;9.13;4.77;;;;;;;;;;5100023;28;20248;-61
2022/10/19 07:31:23;;;;;;;13.77;5.17;;;;;;;;;;5100051;28;20205;-61
2022/10/19 07:33:59;;;;;;;13.27;5.33;;;;;;;;;;5100031;28;20225;-61
2022/10/19 07:36:29;;;;;;;9.33;5.53;;;;;;;;;;5099998;28;20215;-61
2022/10/19 07:38:58;;;;;;;12.03;5.90;;;;;;;;;;5095605;28;20198;-61
2022/10/19 07:41:30;;;;;;;10.67;6.20;;;;;;;;;;5100332;28;20206;-61
2022/10/19 07:44:07;;;;;;;12.17;5.87;;;;;;;;;;5108007;28;20217;-61
2022/10/19 07:46:41;;;;;;;12.13;6.37;;;;;;;;;;5099858;28;20281;-61
2022/10/19 07:49:15;;;;;;;10.70;5.03;;;;;;;;;;5100012;28;20232;-61
2022/10/19 07:51:42;;;;;;;11.60;5.20;;;;;;;;;;5099620;28;20571;-62
2022/10/19 07:54:10;;;;;;;9.67;5.20;;;;;;;;;;5099512;28;20241;-62
2022/10/19 07:56:40;;;;;;;12.40;5.50;;;;;;;;;;5097683;28;20205;-62
2022/10/19 07:59:08;;;;;;;9.77;5.10;;;;;;;;;;5099800;28;20208;-61
2022/10/19 08:01:39;;;;;;;9.93;5.30;;;;;;;;;;5099047;28;20205;-62
2022/10/19 08:04:08;;;;;;;11.70;5.53;;;;;;;;;;5099189;28;20709;-62
2022/10/19 08:06:55;;;;;;;11.90;5.20;;;;;;;;;;5099213;28;20676;-63
2022/10/19 08:09:23;;;;;;;9.23;6.00;;;;;;;;;;5099591;28;20320;-63
2022/10/19 08:12:13;;;;;;;10.97;5.60;;;;;;;;;;5099094;28;20205;-63
2022/10/19 08:14:42;;;;;;;10.97;6.03;;;;;;;;;;5099283;28;20226;-63
2022/10/19 08:17:15;;;;;;;7.90;5.60;;;;;;;;;;5099232;28;20212;-62
2022/10/19 08:19:43;;;;;;;9.73;6.07;;;;;;;;;;5099228;28;20212;-63
2022/10/19 08:22:11;;;;;;;10.83;5.47;;;;;;;;;;5099464;28;20210;-64
2022/10/19 08:24:39;;;;;;;7.83;5.80;;;;;;;;;;5099145;28;20231;-62
2022/10/19 08:27:07;;;;;;;7.67;5.13;;;;;;;;;;5098859;28;20201;-62
2022/10/19 08:29:36;;;;;;;9.27;5.37;;;;;;;;;;5098248;28;20230;-63
2022/10/19 08:32:05;;;;;;;9.27;5.80;;;;;;;;;;5098489;28;20202;-62
2022/10/19 08:34:32;;;;;;;8.77;5.30;;;;;;;;;;5098845;28;20238;-61
2022/10/19 08:37:01;;;;;;;13.63;5.67;;;;;;;;;;5098982;28;20217;-62
2022/10/19 08:39:46;;;;;;;10.03;6.00;;;;;;;;;;5098981;28;20258;-62
2022/10/19 08:42:16;;;;;;;9.30;5.50;;;;;;;;;;5098522;28;20205;-62
2022/10/19 08:45:08;;;;;;;14.57;8.37;;;;;;;;;;5098964;28;20229;-62
2022/10/19 08:47:46;;;;;;;8.93;6.20;;;;;;;;;;5083363;28;20224;-62
2022/10/19 08:50:19;;;;;;;12.47;6.83;;;;;;;;;;5098578;28;20573;-62
2022/10/19 08:52:50;;;;;;;8.17;6.13;;;;;;;;;;5098159;28;20227;-62
2022/10/19 08:55:22;;;;;;;13.73;6.40;;;;;;;;;;5098761;28;20229;-62
2022/10/19 08:57:54;;;;;;;13.03;6.17;;;;;;;;;;5098147;28;20201;-62
2022/10/19 09:00:26;;;;;;;11.30;5.60;;;;;;;;;;5098499;28;20572;-62
2022/10/19 09:02:58;;;;;;;8.60;5.13;;;;;;;;;;5098350;28;20211;-62
2022/10/19 09:05:30;;;;;;;9.40;4.83;;;;;;;;;;5098257;28;20213;-61
2022/10/19 09:07:58;;;;;;;6.73;4.80;;;;;;;;;;5098384;28;20218;-63
2022/10/19 09:10:28;;;;;;;7.60;4.83;;;;;;;;;;5098135;28;20205;-61
2022/10/19 09:12:58;;;;;;;10.40;4.77;;;;;;;;;;5098120;28;20201;-62
2022/10/19 09:15:27;;;;;;;8.50;5.23;;;;;;;;;;5097984;28;20201;-61
2022/10/19 09:17:56;;;;;;;8.07;4.47;;;;;;;;;;5098114;28;20206;-62
2022/10/19 09:20:27;;;;;;;10.83;4.93;;;;;;;;;;5097795;28;20212;-62
2022/10/19 09:23:00;;;;;;;9.97;4.60;;;;;;;;;;5097853;28;20216;-62
2022/10/19 09:25:29;;;;;;;6.90;4.33;;;;;;;;;;5098032;28;20215;-62
2022/10/19 09:28:00;;;;;;;8.20;4.53;;;;;;;;;;5097853;28;20216;-62
2022/10/19 09:30:35;;;;;;;8.27;5.03;;;;;;;;;;5097833;28;20219;-61
2022/10/19 09:33:04;;;;;;;9.23;4.60;;;;;;;;;;5098016;28;20209;-62
2022/10/19 09:35:33;;;;;;;9.27;4.50;;;;;;;;;;5098077;28;20205;-62
2022/10/19 09:38:02;;;;;;;6.63;4.53;;;;;;;;;;5097907;28;20213;-61
2022/10/19 09:40:30;;;;;;;5.93;4.13;;;;;;;;;;5097811;28;20218;-61
2022/10/19 09:43:02;;;;;;;8.47;5.13;;;;;;;;;;5093756;28;20667;-62
2022/10/19 09:45:33;;;;;;;8.87;5.57;;;;;;;;;;5105280;28;20204;-61
2022/10/19 09:48:03;;;;;;;8.37;4.63;;;;;;;;;;5097851;28;20210;-61
2022/10/19 09:50:42;;;;;;;5.97;3.90;;;;;;;;;;5099891;28;20284;-61
2022/10/19 09:53:17;;;;;;;7.83;4.10;;;;;;;;;;5097647;28;20229;-60
2022/10/19 09:55:47;;;;;;;11.17;4.70;;;;;;;;;;5097416;28;20688;-60
2022/10/19 09:58:20;;;;;;;9.83;4.80;;;;;;;;;;5097425;28;20230;-61
2022/10/19 10:00:50;;;;;;;9.70;4.40;;;;;;;;;;5097928;28;20670;-61
2022/10/19 10:03:26;;;;;;;5.83;4.17;;;;;;;;;;5105243;28;20234;-61
2022/10/19 10:05:57;;;;;;;12.10;4.90;;;;;;;;;;5097837;28;20229;-61
2022/10/19 10:08:26;;;;;;;10.77;5.00;;;;;;;;;;5097569;28;20233;-61
2022/10/19 10:10:59;;;;;;;7.53;4.97;;;;;;;;;;5097125;28;20517;-61
2022/10/19 10:13:27;;;;;;;7.20;4.57;;;;;;;;;;5097412;28;20226;-62
2022/10/19 10:15:56;;;;;;;8.87;4.53;;;;;;;;;;5097267;28;20663;-61
2022/10/19 10:18:25;;;;;;;9.53;4.40;;;;;;;;;;5097413;28;20209;-62
2022/10/19 10:20:58;;;;;;;7.67;4.50;;;;;;;;;;5097337;28;20217;-62
2022/10/19 10:23:28;;;;;;;9.40;4.37;;;;;;;;;;5097475;28;20228;-62
2022/10/19 10:25:56;;;;;;;8.93;4.10;;;;;;;;;;5097392;28;20213;-62
2022/10/19 10:28:25;;;;;;;10.17;3.77;;;;;;;;;;5097007;28;20211;-63
2022/10/19 10:30:54;;;;;;;8.43;4.27;;;;;;;;;;5097351;28;20217;-62
2022/10/19 10:33:25;;;;;;;8.33;5.17;;;;;;;;;;5097344;28;20227;-62
2022/10/19 10:36:12;;;;;;;7.87;4.00;;;;;;;;;;5097331;28;20229;-62
2022/10/19 10:38:42;;;;;;;8.67;4.33;;;;;;;;;;5097180;28;20232;-62
2022/10/19 10:41:11;;;;;;;9.87;4.53;;;;;;;;;;5097072;28;20250;-62
2022/10/19 10:43:51;;;;;;;6.80;4.43;;;;;;;;;;5097062;28;20593;-62
2022/10/19 10:46:25;;;;;;;9.80;4.70;;;;;;;;;;5096940;28;20215;-62
2022/10/19 10:48:55;;;;;;;7.30;4.43;;;;;;;;;;5096915;28;20622;-62
2022/10/19 10:51:26;;;;;;;8.50;4.50;;;;;;;;;;5097042;28;20242;-63
2022/10/19 10:54:06;;;;;;;8.10;4.53;;;;;;;;;;5098507;28;20250;-62
2022/10/19 10:56:34;;;;;;;10.87;5.47;;;;;;;;;;5100392;28;20224;-62
2022/10/19 10:59:04;;;;;;;10.30;4.60;;;;;;;;;;5100999;28;20208;-63
2022/10/19 11:01:35;;;;;;;8.80;5.03;;;;;;;;;;5101131;28;20208;-62
2022/10/19 11:04:06;;;;;;;10.97;4.60;;;;;;;;;;5100685;28;20627;-63
2022/10/19 11:06:40;;;;;;;7.30;5.17;;;;;;;;;;5100534;28;20255;-63
2022/10/19 11:09:16;;;;;;;10.50;5.17;;;;;;;;;;5087530;28;20228;-63
2022/10/19 11:11:45;;;;;;;9.50;4.83;;;;;;;;;;5100375;28;20212;-62
2022/10/19 11:14:25;;;;;;;8.63;4.03;;;;;;;;;;5100568;28;20231;-62
2022/10/19 11:16:54;;;;;;;10.33;5.07;;;;;;;;;;5100561;28;20205;-62
2022/10/19 11:19:23;;;;;;;9.77;5.10;;;;;;;;;;5100572;28;20202;-63
2022/10/19 11:21:56;;;;;;;9.70;4.80;;;;;;;;;;5100242;28;20549;-63
2022/10/19 11:24:31;;;;;;;13.20;5.50;;;;;;;;;;5100479;28;20236;-62
2022/10/19 11:27:03;;;;;;;10.57;5.10;;;;;;;;;;5099976;28;20220;-63
2022/10/19 11:29:38;;;;;;;14.37;5.50;;;;;;;;;;5100067;28;20225;-62
2022/10/19 11:32:10;;;;;;;10.73;4.93;;;;;;;;;;5100471;28;20205;-62
2022/10/19 11:34:45;;;;;;;10.63;5.07;;;;;;;;;;5100135;28;20231;-62
2022/10/19 11:37:20;;;;;;;9.47;4.47;;;;;;;;;;5100144;28;20278;-63
2022/10/19 11:39:54;;;;;;;8.70;5.17;;;;;;;;;;5098556;28;20203;-62
2022/10/19 11:42:25;;;;;;;6.57;5.00;;;;;;;;;;5099683;28;20223;-62
2022/10/19 11:45:00;;;;;;;7.93;4.90;;;;;;;;;;5100075;28;20236;-63
2022/10/19 11:47:38;;;;;;;10.50;5.27;;;;;;;;;;5099709;28;20201;-62
2022/10/19 11:50:13;;;;;;;10.50;4.90;;;;;;;;;;5099830;28;20228;-63
2022/10/19 11:52:47;;;;;;;11.80;4.73;;;;;;;;;;5099345;28;20236;-63
2022/10/19 11:55:21;;;;;;;6.77;4.50;;;;;;;;;;5099925;28;20231;-63
2022/10/19 11:57:53;;;;;;;8.50;4.83;;;;;;;;;;5099560;28;20287;-63
2022/10/19 12:00:22;;;;;;;9.60;4.93;;;;;;;;;;5099400;28;20247;-63
2022/10/19 12:03:26;;;;;;;8.70;4.80;;;;;;;;;;5099672;28;20206;-63
2022/10/19 12:05:59;;;;;;;7.03;4.37;;;;;;;;;;5099407;28;20214;-63
2022/10/19 12:08:35;;;;;;;9.77;4.50;;;;;;;;;;5099446;28;20287;-63
2022/10/19 12:11:08;;;;;;;9.33;5.60;;;;;;;;;;5099084;28;20235;-63
2022/10/19 12:13:39;;;;;;;7.33;4.53;;;;;;;;;;5099308;28;20228;-63
2022/10/19 12:16:08;;;;;;;8.23;4.63;;;;;;;;;;5099364;28;20203;-63
2022/10/19 12:18:39;;;;;;;10.07;4.23;;;;;;;;;;5099203;28;20209;-62
2022/10/19 12:21:09;;;;;;;7.63;4.47;;;;;;;;;;5099431;28;20210;-62
2022/10/19 12:23:39;;;;;;;11.97;5.23;;;;;;;;;;5099171;28;20242;-62
2022/10/19 12:26:09;;;;;;;6.43;4.63;;;;;;;;;;5098916;28;20210;-62
2022/10/19 12:28:38;;;;;;;9.87;4.73;;;;;;;;;;5099103;28;20205;-62
2022/10/19 12:31:07;;;;;;;8.40;4.90;;;;;;;;;;5099019;28;20230;-62
2022/10/19 12:33:45;;;;;;;11.20;5.60;;;;;;;;;;5098769;28;20676;-63
2022/10/19 12:36:19;;;;;;;15.43;5.13;;;;;;;;;;5099070;28;20212;-62
2022/10/19 12:38:53;;;;;;;15.43;5.33;;;;;;;;;;5100968;28;20205;-62
2022/10/19 12:41:29;;;;;;;11.53;4.90;;;;;;;;;;5098183;28;20623;-63
2022/10/19 12:44:14;;;;;;;12.73;5.13;;;;;;;;;;5098844;28;20232;-62
2022/10/19 12:46:44;;;;;;;6.33;4.40;;;;;;;;;;5098388;28;20658;-62
2022/10/19 12:49:35;;;;;;;9.17;4.00;;;;;;;;;;5098775;28;20289;-62
2022/10/19 12:52:03;;;;;;;15.30;4.27;;;;;;;;;;5098564;28;20210;-62
2022/10/19 12:54:34;;;;;;;5.40;3.93;;;;;;;;;;5098350;28;20244;-63
2022/10/19 12:57:04;;;;;;;7.77;4.17;;;;;;;;;;5098197;28;20297;-62
2022/10/19 12:59:33;;;;;;;6.20;3.83;;;;;;;;;;5098621;28;20216;-63
2022/10/19 13:02:01;;;;;;;10.40;4.00;;;;;;;;;;5098671;28;20239;-62
2022/10/19 13:04:31;;;;;;;6.73;3.83;;;;;;;;;;5098486;28;20225;-62
2022/10/19 13:07:00;;;;;;;7.87;3.20;;;;;;;;;;5098472;28;20201;-63
2022/10/19 13:09:30;;;;;;;9.60;3.40;;;;;;;;;;5098560;28;20209;-62
2022/10/19 13:12:17;;;;;;;6.53;3.53;;;;;;;;;;5098076;28;20233;-62
2022/10/19 13:14:52;;;;;;;8.87;3.93;;;;;;;;;;5098398;28;20233;-62
2022/10/19 13:17:35;;;;;;;6.50;3.53;;;;;;;;;;5097908;28;20202;-62
2022/10/19 13:20:18;;;;;;;7.47;3.80;;;;;;;;;;5098310;28;20213;-63
2022/10/19 13:22:47;;;;;;;5.47;3.33;;;;;;;;;;5085441;28;20203;-63
2022/10/19 13:25:22;;;;;;;8.80;3.37;;;;;;;;;;5098161;28;20233;-63
2022/10/19 13:27:51;;;;;;;8.53;3.87;;;;;;;;;;5097690;28;20206;-63
2022/10/19 13:30:36;;;;;;;5.03;3.00;;;;;;;;;;5097837;28;20226;-63
2022/10/19 13:33:19;;;;;;;7.43;3.10;;;;;;;;;;5087803;28;20205;-63
2022/10/19 13:35:49;;;;;;;13.90;3.73;;;;;;;;;;5097603;28;20210;-63
2022/10/19 13:38:22;;;;;;;6.93;3.30;;;;;;;;;;5097926;28;20212;-63
2022/10/19 13:40:59;;;;;;;8.77;2.83;;;;;;;;;;5097668;28;20203;-63
2022/10/19 13:43:29;;;;;;;10.37;3.97;;;;;;;;;;5097719;28;20225;-62
2022/10/19 13:46:00;;;;;;;8.57;3.07;;;;;;;;;;5097785;28;21276;-63
2022/10/19 13:48:34;;;;;;;5.10;2.97;;;;;;;;;;5097928;28;20213;-63
2022/10/19 13:51:06;;;;;;;9.30;3.40;;;;;;;;;;5097716;28;20667;-62
2022/10/19 13:53:39;;;;;;;12.53;3.10;;;;;;;;;;5097714;28;20245;-62
2022/10/19 13:56:22;;;;;;;7.80;3.63;;;;;;;;;;5097096;28;20595;-63
2022/10/19 13:59:08;;;;;;;10.00;3.80;;;;;;;;;;5097458;28;20547;-62
2022/10/19 14:01:43;;;;;;;13.20;3.77;;;;;;;;;;5067071;28;20215;-63
2022/10/19 14:04:20;;;;;;;8.93;3.20;;;;;;;;;;5097425;28;20236;-63
2022/10/19 14:06:51;;;;;;;5.50;2.70;;;;;;;;;;5097410;28;20201;-62
2022/10/19 14:09:34;;;;;;;10.13;2.97;;;;;;;;;;5097555;28;20653;-62
2022/10/19 14:12:05;;;;;;;10.97;3.80;;;;;;;;;;5096983;28;20588;-63
2022/10/19 14:14:39;;;;;;;10.70;3.60;;;;;;;;;;5097311;28;20230;-63
2022/10/19 14:17:14;;;;;;;9.77;3.70;;;;;;;;;;5097861;28;20203;-63
2022/10/19 14:19:43;;;;;;;10.87;3.90;;;;;;;;;;5097299;28;20627;-63
2022/10/19 14:22:20;;;;;;;9.67;4.23;;;;;;;;;;5097296;28;20199;-63
2022/10/19 14:24:48;;;;;;;8.57;4.13;;;;;;;;;;5097140;28;20226;-62
2022/10/19 14:27:18;;;;;;;11.27;3.43;;;;;;;;;;5097092;28;20210;-63
2022/10/19 14:29:47;;;;;;;5.50;3.13;;;;;;;;;;5100534;28;20295;-63
2022/10/19 14:32:15;;;;;;;10.43;3.10;;;;;;;;;;5101114;28;20233;-63
2022/10/19 14:34:44;;;;;;;8.40;3.50;;;;;;;;;;5100980;28;20230;-62
2022/10/19 14:37:14;;;;;;;10.13;3.00;;;;;;;;;;5101400;28;20222;-63
2022/10/19 14:39:56;;;;;;;9.87;3.63;;;;;;;;;;5098870;28;20207;-63
2022/10/19 14:42:24;;;;;;;7.90;3.50;;;;;;;;;;5100499;28;20565;-63
2022/10/19 14:44:54;;;;;;;13.93;2.67;;;;;;;;;;5100895;28;20233;-63
2022/10/19 14:47:22;;;;;;;6.57;3.03;;;;;;;;;;5101229;28;20215;-62
2022/10/19 14:49:50;;;;;;;9.63;3.63;;;;;;;;;;5101121;28;20211;-63
2022/10/19 14:52:21;;;;;;;6.80;3.53;;;;;;;;;;5100890;28;20234;-63
2022/10/19 14:54:51;;;;;;;7.93;4.20;;;;;;;;;;5100651;28;20279;-63
2022/10/19 14:57:23;;;;;;;8.97;3.63;;;;;;;;;;5100648;28;20209;-62
2022/10/19 14:59:53;;;;;;;8.13;3.27;;;;;;;;;;5100916;28;20206;-63
2022/10/19 15:02:22;;;;;;;8.33;3.70;;;;;;;;;;5100617;28;20661;-62
2022/10/19 15:04:51;;;;;;;7.10;3.20;;;;;;;;;;5100842;28;20226;-62